Wetterdaten: Woche 10.04.17 - 16.04.17 (KW15)
Datum Zeit Temp. A. Feuchte A. Luftdruck Regen Wind Richtung Taupunkt Windchill Windben
10.04.2017 00:00 7,2 C 80 % 1023,3 hPa 0,0 l/m 0,0 km/h N 4,0 C 7,2 C 0,0 km/h
10.04.2017 01:00 6,5 C 81 % 1023,1 hPa 0,0 l/m 0,0 km/h N 3,5 C 6,5 C 0,0 km/h
10.04.2017 02:00 5,8 C 82 % 1022,5 hPa 0,0 l/m 0,0 km/h N 2,9 C 5,8 C 0,0 km/h
10.04.2017 03:00 5,1 C 82 % 1021,9 hPa 0,0 l/m 0,0 km/h N 2,4 C 5,1 C 0,0 km/h
10.04.2017 04:00 4,5 C 83 % 1021,6 hPa 0,0 l/m 0,0 km/h N 1,9 C 4,5 C 0,0 km/h
10.04.2017 05:00 4,1 C 83 % 1021,2 hPa 0,0 l/m 0,0 km/h N 1,5 C 4,1 C 0,0 km/h
10.04.2017 06:00 3,8 C 83 % 1021,3 hPa 0,0 l/m 0,0 km/h N 1,1 C 3,8 C 0,0 km/h
10.04.2017 07:00 4,2 C 83 % 1021,3 hPa 0,0 l/m 0,0 km/h N 1,5 C 4,2 C 0,0 km/h
10.04.2017 08:00 6,8 C 83 % 1021,0 hPa 0,0 l/m 0,0 km/h N 4,1 C 6,8 C 0,4 km/h
10.04.2017 09:00 10,1 C 82 % 1020,7 hPa 0,0 l/m 0,2 km/h N 7,1 C 10,1 C 3,6 km/h
10.04.2017 10:00 13,8 C 71 % 1020,5 hPa 0,0 l/m 0,4 km/h N 8,6 C 13,8 C 3,6 km/h
10.04.2017 11:00 16,0 C 65 % 1019,9 hPa 0,0 l/m 0,8 km/h N 9,4 C 16,0 C 6,8 km/h
10.04.2017 12:00 18,0 C 59 % 1019,0 hPa 0,0 l/m 0,6 km/h N 9,9 C 18,0 C 6,0 km/h
10.04.2017 13:00 20,0 C 55 % 1018,0 hPa 0,0 l/m 0,5 km/h N 10,5 C 20,0 C 5,2 km/h
10.04.2017 14:00 21,3 C 48 % 1016,9 hPa 0,0 l/m 1,1 km/h N 9,9 C 21,3 C 6,8 km/h
10.04.2017 15:00 21,7 C 48 % 1016,0 hPa 0,0 l/m 0,5 km/h N 10,0 C 21,7 C 6,8 km/h
10.04.2017 16:00 21,7 C 47 % 1015,2 hPa 0,0 l/m 0,6 km/h N 9,8 C 21,7 C 6,8 km/h
10.04.2017 17:00 21,5 C 47 % 1014,5 hPa 0,0 l/m 0,6 km/h N 9,6 C 21,5 C 6,8 km/h
10.04.2017 18:00 21,0 C 47 % 1013,7 hPa 0,0 l/m 0,1 km/h N 9,3 C 21,0 C 2,4 km/h
10.04.2017 19:00 20,1 C 50 % 1013,3 hPa 0,0 l/m 0,0 km/h N 9,4 C 20,1 C 1,2 km/h
10.04.2017 20:00 17,6 C 58 % 1013,5 hPa 0,0 l/m 0,0 km/h N 9,2 C 17,6 C 0,4 km/h
10.04.2017 21:00 14,5 C 68 % 1013,7 hPa 0,0 l/m 0,0 km/h N 8,5 C 14,5 C 0,0 km/h
10.04.2017 22:00 12,5 C 75 % 1013,6 hPa 0,0 l/m 0,0 km/h N 8,1 C 12,5 C 1,2 km/h
10.04.2017 23:00 11,5 C 78 % 1013,4 hPa 0,0 l/m 0,1 km/h N 7,8 C 11,5 C 2,0 km/h
11.04.2017 00:00 11,1 C 80 % 1013,1 hPa 0,0 l/m 0,0 km/h N 7,8 C 11,1 C 2,0 km/h
11.04.2017 01:00 11,1 C 80 % 1013,2 hPa 0,0 l/m 0,0 km/h N 7,7 C 11,1 C 0,8 km/h
11.04.2017 02:00 10,3 C 79 % 1013,5 hPa 0,0 l/m 0,9 km/h N 6,8 C 10,3 C 4,0 km/h
11.04.2017 03:00 12,9 C 74 % 1014,5 hPa 0,0 l/m 1,4 km/h N 8,5 C 12,9 C 9,7 km/h
11.04.2017 04:00 13,5 C 73 % 1014,7 hPa 0,0 l/m 3,5 km/h N 8,8 C 13,5 C 15,3 km/h
11.04.2017 05:00 13,0 C 75 % 1015,5 hPa 0,0 l/m 7,2 km/h N 8,7 C 12,3 C 19,7 km/h
11.04.2017 06:00 11,0 C 77 % 1016,7 hPa 0,0 l/m 6,8 km/h N 7,1 C 10,5 C 18,5 km/h
11.04.2017 07:00 9,9 C 74 % 1017,7 hPa 0,0 l/m 8,4 km/h N 5,5 C 8,6 C 22,1 km/h
11.04.2017 08:00 9,6 C 71 % 1019,0 hPa 0,0 l/m 6,6 km/h N 4,5 C 9,3 C 20,1 km/h
11.04.2017 09:00 9,8 C 66 % 1019,8 hPa 0,0 l/m 10,9 km/h N 3,7 C 6,9 C 25,3 km/h
11.04.2017 10:00 10,7 C 60 % 1020,0 hPa 0,0 l/m 13,6 km/h N 3,2 C 6,6 C 33,0 km/h
11.04.2017 11:00 11,7 C 56 % 1020,5 hPa 0,0 l/m 11,8 km/h N 3,3 C 8,7 C 32,2 km/h
11.04.2017 12:00 11,7 C 54 % 1020,9 hPa 0,0 l/m 12,8 km/h N 2,7 C 8,2 C 32,2 km/h
11.04.2017 13:00 12,5 C 52 % 1020,6 hPa 0,0 l/m 12,0 km/h N 2,8 C 9,3 C 30,2 km/h
11.04.2017 14:00 12,8 C 50 % 1020,2 hPa 0,0 l/m 11,0 km/h N 2,6 C 10,2 C 29,0 km/h
11.04.2017 15:00 12,9 C 49 % 1020,0 hPa 0,0 l/m 9,5 km/h N 2,4 C 11,0 C 27,0 km/h
11.04.2017 16:00 13,0 C 48 % 1019,9 hPa 0,0 l/m 9,5 km/h N 2,4 C 11,2 C 24,5 km/h
11.04.2017 17:00 13,3 C 48 % 1020,0 hPa 0,0 l/m 8,5 km/h N 2,6 C 12,0 C 22,9 km/h
11.04.2017 18:00 13,1 C 49 % 1020,3 hPa 0,0 l/m 6,7 km/h N 2,5 C 12,8 C 20,1 km/h
11.04.2017 19:00 12,4 C 49 % 1021,0 hPa 0,0 l/m 4,3 km/h N 1,9 C 12,4 C 16,5 km/h
11.04.2017 20:00 11,4 C 50 % 1022,1 hPa 0,0 l/m 3,3 km/h N 1,4 C 11,4 C 14,1 km/h
11.04.2017 21:00 10,3 C 54 % 1023,0 hPa 0,0 l/m 0,4 km/h N 1,4 C 10,3 C 4,4 km/h
11.04.2017 22:00 9,9 C 55 % 1023,5 hPa 0,0 l/m 1,1 km/h N 1,1 C 9,9 C 7,7 km/h
11.04.2017 23:00 9,6 C 55 % 1023,7 hPa 0,0 l/m 0,0 km/h N 1,0 C 9,6 C 0,8 km/h
12.04.2017 00:00 8,7 C 59 % 1023,9 hPa 0,0 l/m 0,0 km/h N 1,0 C 8,7 C 0,0 km/h
12.04.2017 01:00 7,0 C 64 % 1023,8 hPa 0,0 l/m 0,0 km/h N 0,7 C 7,0 C 0,0 km/h
12.04.2017 02:00 5,5 C 70 % 1023,3 hPa 0,0 l/m 0,0 km/h N 0,4 C 5,5 C 0,0 km/h
12.04.2017 03:00 4,4 C 74 % 1022,9 hPa 0,0 l/m 0,0 km/h N 0,1 C 4,4 C 0,4 km/h
12.04.2017 04:00 3,8 C 76 % 1022,5 hPa 0,0 l/m 0,0 km/h N -0,0 C 3,8 C 0,0 km/h
12.04.2017 05:00 3,2 C 78 % 1022,0 hPa 0,0 l/m 0,0 km/h N -0,2 C 3,2 C 0,0 km/h
12.04.2017 06:00 3,1 C 80 % 1021,8 hPa 0,0 l/m 0,0 km/h N -0,1 C 3,1 C 1,2 km/h
12.04.2017 07:00 3,6 C 80 % 1021,5 hPa 0,0 l/m 0,0 km/h N 0,5 C 3,6 C 0,0 km/h
12.04.2017 08:00 5,6 C 80 % 1021,4 hPa 0,0 l/m 0,0 km/h N 2,4 C 5,6 C 0,8 km/h
12.04.2017 09:00 8,9 C 69 % 1020,9 hPa 0,0 l/m 0,1 km/h N 3,4 C 8,9 C 2,8 km/h
12.04.2017 10:00 12,4 C 59 % 1020,3 hPa 0,0 l/m 0,1 km/h N 4,5 C 12,4 C 2,8 km/h
12.04.2017 11:00 13,6 C 51 % 1020,1 hPa 0,0 l/m 4,6 km/h N 3,6 C 13,3 C 15,3 km/h
12.04.2017 12:00 14,0 C 46 % 1019,3 hPa 0,0 l/m 6,0 km/h N 2,6 C 13,9 C 17,3 km/h
12.04.2017 13:00 14,9 C 46 % 1018,3 hPa 0,0 l/m 7,1 km/h N 3,4 C 14,5 C 22,1 km/h
12.04.2017 14:00 15,5 C 47 % 1017,1 hPa 0,0 l/m 6,7 km/h N 4,2 C 15,0 C 20,9 km/h
12.04.2017 15:00 16,1 C 47 % 1016,0 hPa 0,0 l/m 2,1 km/h N 4,8 C 16,1 C 14,1 km/h
12.04.2017 16:00 16,4 C 49 % 1015,0 hPa 0,0 l/m 0,9 km/h N 5,5 C 16,4 C 7,6 km/h
12.04.2017 17:00 16,6 C 48 % 1014,2 hPa 0,0 l/m 1,5 km/h N 5,6 C 16,6 C 8,9 km/h
12.04.2017 18:00 16,1 C 49 % 1013,5 hPa 0,0 l/m 1,3 km/h N 5,3 C 16,1 C 9,3 km/h
12.04.2017 19:00 15,3 C 52 % 1012,6 hPa 0,0 l/m 0,4 km/h N 5,4 C 15,3 C 3,6 km/h
12.04.2017 20:00 13,5 C 59 % 1012,4 hPa 0,0 l/m 0,0 km/h N 5,7 C 13,5 C 0,8 km/h
12.04.2017 21:00 11,8 C 69 % 1012,0 hPa 0,0 l/m 0,1 km/h N 6,4 C 11,8 C 1,6 km/h
12.04.2017 22:00 11,2 C 73 % 1011,6 hPa 0,0 l/m 0,0 km/h N 6,5 C 11,2 C 0,0 km/h
12.04.2017 23:00 11,3 C 73 % 1011,4 hPa 0,0 l/m 0,3 km/h N 6,6 C 11,3 C 3,2 km/h
13.04.2017 00:00 11,5 C 72 % 1011,1 hPa 0,0 l/m 0,1 km/h N 6,7 C 11,5 C 1,6 km/h
13.04.2017 01:00 11,4 C 75 % 1010,8 hPa 0,0 l/m 0,0 km/h N 7,0 C 11,4 C 0,8 km/h
13.04.2017 02:00 11,1 C 78 % 1010,3 hPa 0,3 l/m 0,0 km/h N 7,4 C 11,1 C 0,8 km/h
13.04.2017 03:00 10,6 C 81 % 1009,3 hPa 0,0 l/m 0,0 km/h N 7,4 C 10,6 C 0,8 km/h
13.04.2017 04:00 10,2 C 82 % 1009,0 hPa 0,0 l/m 0,1 km/h N 7,3 C 10,2 C 2,0 km/h
13.04.2017 05:00 10,5 C 82 % 1008,9 hPa 0,5 l/m 0,3 km/h N 7,6 C 10,5 C 3,6 km/h
13.04.2017 06:00 10,7 C 82 % 1008,9 hPa 0,0 l/m 0,2 km/h N 7,8 C 10,7 C 4,0 km/h
13.04.2017 07:00 11,4 C 79 % 1009,2 hPa 0,3 l/m 0,5 km/h N 7,8 C 11,4 C 7,2 km/h
13.04.2017 08:00 12,8 C 72 % 1009,4 hPa 0,0 l/m 1,9 km/h N 7,7 C 12,8 C 14,5 km/h
13.04.2017 09:00 13,6 C 67 % 1009,8 hPa 0,0 l/m 3,2 km/h N 7,5 C 13,6 C 17,3 km/h
13.04.2017 10:00 14,0 C 65 % 1010,3 hPa 0,0 l/m 5,5 km/h N 7,6 C 13,6 C 22,5 km/h
13.04.2017 11:00 13,3 C 69 % 1010,7 hPa 0,3 l/m 9,4 km/h N 7,7 C 11,6 C 27,0 km/h
13.04.2017 12:00 13,8 C 68 % 1010,6 hPa 0,0 l/m 8,4 km/h N 7,9 C 12,6 C 26,5 km/h
13.04.2017 13:00 14,6 C 66 % 1010,6 hPa 0,0 l/m 7,5 km/h N 8,3 C 13,6 C 25,4 km/h
13.04.2017 14:00 15,0 C 63 % 1010,4 hPa 0,0 l/m 6,5 km/h N 8,1 C 14,9 C 24,1 km/h
13.04.2017 15:00 14,3 C 62 % 1011,0 hPa 0,0 l/m 11,3 km/h N 7,0 C 11,8 C 30,6 km/h
13.04.2017 16:00 10,8 C 76 % 1012,2 hPa 1,0 l/m 5,3 km/h N 6,7 C 10,4 C 16,1 km/h
13.04.2017 17:00 9,5 C 81 % 1012,5 hPa 1,3 l/m 1,2 km/h N 6,3 C 9,5 C 8,0 km/h
13.04.2017 18:00 9,7 C 82 % 1012,8 hPa 0,0 l/m 0,1 km/h N 6,8 C 9,7 C 2,4 km/h
13.04.2017 19:00 9,8 C 81 % 1013,0 hPa 0,0 l/m 0,0 km/h N 6,6 C 9,8 C 0,8 km/h
13.04.2017 20:00 9,2 C 80 % 1013,4 hPa 0,0 l/m 0,0 km/h N 6,0 C 9,2 C 0,0 km/h
13.04.2017 21:00 8,5 C 81 % 1013,7 hPa 0,0 l/m 0,0 km/h N 5,4 C 8,5 C 0,0 km/h
13.04.2017 22:00 8,3 C 82 % 1013,7 hPa 0,0 l/m 0,0 km/h N 5,4 C 8,3 C 0,0 km/h
13.04.2017 23:00 8,3 C 82 % 1013,9 hPa 0,0 l/m 0,0 km/h N 5,4 C 8,3 C 0,0 km/h
14.04.2017 00:00 8,1 C 82 % 1013,9 hPa 0,0 l/m 0,1 km/h N 5,2 C 8,1 C 2,0 km/h
14.04.2017 01:00 9,4 C 80 % 1013,9 hPa 0,0 l/m 1,2 km/h N 6,1 C 9,4 C 8,0 km/h
14.04.2017 02:00 9,9 C 77 % 1013,7 hPa 0,0 l/m 0,4 km/h N 6,0 C 9,9 C 4,8 km/h
14.04.2017 03:00 9,5 C 77 % 1013,8 hPa 0,0 l/m 0,0 km/h N 5,7 C 9,5 C 0,8 km/h
14.04.2017 04:00 9,6 C 78 % 1013,9 hPa 0,0 l/m 0,1 km/h N 6,0 C 9,6 C 4,8 km/h
14.04.2017 05:00 10,5 C 72 % 1013,7 hPa 0,0 l/m 1,1 km/h N 5,7 C 10,5 C 8,4 km/h
14.04.2017 06:00 11,1 C 68 % 1014,1 hPa 0,0 l/m 0,6 km/h N 5,3 C 11,1 C 7,2 km/h
14.04.2017 07:00 10,8 C 71 % 1014,8 hPa 0,0 l/m 0,1 km/h N 5,8 C 10,8 C 3,2 km/h
14.04.2017 08:00 10,9 C 73 % 1015,2 hPa 0,0 l/m 0,5 km/h N 6,2 C 10,9 C 6,4 km/h
14.04.2017 09:00 12,5 C 64 % 1015,0 hPa 0,0 l/m 6,2 km/h N 5,8 C 12,0 C 17,7 km/h
14.04.2017 10:00 13,8 C 58 % 1014,9 hPa 0,0 l/m 6,9 km/h N 5,5 C 13,4 C 20,1 km/h
14.04.2017 11:00 14,4 C 55 % 1014,9 hPa 0,0 l/m 5,9 km/h N 5,4 C 14,3 C 19,3 km/h
14.04.2017 12:00 14,9 C 52 % 1014,6 hPa 0,0 l/m 5,8 km/h N 5,1 C 14,8 C 20,1 km/h
14.04.2017 13:00 15,4 C 49 % 1014,4 hPa 0,0 l/m 6,7 km/h N 4,7 C 15,2 C 23,7 km/h
14.04.2017 14:00 15,5 C 50 % 1014,2 hPa 0,0 l/m 4,9 km/h N 5,0 C 15,0 C 18,1 km/h
14.04.2017 15:00 15,2 C 53 % 1013,9 hPa 0,0 l/m 3,0 km/h N 5,7 C 15,2 C 14,5 km/h
14.04.2017 16:00 14,8 C 55 % 1013,8 hPa 0,0 l/m 3,9 km/h N 5,8 C 14,8 C 13,3 km/h
14.04.2017 17:00 14,6 C 55 % 1013,8 hPa 0,0 l/m 2,9 km/h N 5,6 C 14,6 C 11,7 km/h
14.04.2017 18:00 14,4 C 54 % 1013,9 hPa 0,0 l/m 1,8 km/h N 5,1 C 14,4 C 12,5 km/h
14.04.2017 19:00 13,6 C 56 % 1014,0 hPa 0,0 l/m 0,0 km/h N 4,9 C 13,6 C 0,8 km/h
14.04.2017 20:00 11,7 C 62 % 1014,6 hPa 0,0 l/m 0,0 km/h N 4,6 C 11,7 C 0,0 km/h
14.04.2017 21:00 10,2 C 70 % 1015,1 hPa 0,0 l/m 0,0 km/h N 4,9 C 10,2 C 0,0 km/h
14.04.2017 22:00 8,6 C 74 % 1015,3 hPa 0,0 l/m 0,0 km/h N 4,3 C 8,6 C 0,4 km/h
14.04.2017 23:00 7,3 C 78 % 1015,3 hPa 0,0 l/m 0,0 km/h N 3,6 C 7,3 C 0,4 km/h
15.04.2017 00:00 6,3 C 80 % 1015,5 hPa 0,0 l/m 0,0 km/h N 3,2 C 6,3 C 0,0 km/h
15.04.2017 01:00 5,5 C 82 % 1015,6 hPa 0,0 l/m 0,0 km/h N 2,6 C 5,5 C 0,0 km/h
15.04.2017 02:00 4,9 C 82 % 1015,4 hPa 0,0 l/m 0,0 km/h N 2,1 C 4,9 C 0,0 km/h
15.04.2017 03:00 4,3 C 83 % 1015,4 hPa 0,0 l/m 0,0 km/h N 1,6 C 4,3 C 0,0 km/h
15.04.2017 04:00 4,3 C 83 % 1015,4 hPa 0,0 l/m 0,0 km/h N 1,7 C 4,3 C 0,0 km/h
15.04.2017 05:00 4,8 C 83 % 1015,3 hPa 0,0 l/m 0,0 km/h N 2,2 C 4,8 C 0,4 km/h
15.04.2017 06:00 5,4 C 83 % 1015,2 hPa 0,0 l/m 0,0 km/h N 2,8 C 5,4 C 0,4 km/h
15.04.2017 07:00 6,3 C 83 % 1015,1 hPa 0,0 l/m 0,0 km/h N 3,5 C 6,3 C 0,0 km/h
15.04.2017 08:00 7,5 C 82 % 1015,3 hPa 0,0 l/m 0,0 km/h N 4,6 C 7,5 C 0,8 km/h
15.04.2017 09:00 9,3 C 82 % 1015,4 hPa 0,0 l/m 0,0 km/h N 6,3 C 9,3 C 0,4 km/h
15.04.2017 10:00 11,0 C 81 % 1015,3 hPa 0,0 l/m 0,0 km/h N 7,9 C 11,0 C 0,8 km/h
15.04.2017 11:00 13,3 C 67 % 1015,0 hPa 0,0 l/m 0,1 km/h N 7,1 C 13,3 C 2,4 km/h
15.04.2017 12:00 14,6 C 56 % 1014,5 hPa 0,0 l/m 0,4 km/h N 6,0 C 14,6 C 6,0 km/h
15.04.2017 13:00 15,1 C 52 % 1014,0 hPa 0,0 l/m 2,2 km/h N 5,2 C 15,1 C 13,7 km/h
15.04.2017 14:00 16,8 C 50 % 1013,2 hPa 0,0 l/m 5,1 km/h N 6,3 C 16,8 C 20,1 km/h
15.04.2017 15:00 16,7 C 49 % 1012,7 hPa 0,0 l/m 11,1 km/h N 5,9 C 14,6 C 31,4 km/h
15.04.2017 16:00 16,8 C 48 % 1012,2 hPa 0,0 l/m 9,4 km/h N 5,7 C 15,4 C 26,1 km/h
15.04.2017 17:00 16,7 C 50 % 1011,8 hPa 0,0 l/m 6,6 km/h N 6,3 C 16,2 C 22,5 km/h
15.04.2017 18:00 16,3 C 54 % 1011,5 hPa 0,0 l/m 2,0 km/h N 7,0 C 16,3 C 15,3 km/h
15.04.2017 19:00 15,4 C 56 % 1011,4 hPa 0,0 l/m 0,7 km/h N 6,5 C 15,4 C 10,5 km/h
15.04.2017 20:00 14,7 C 58 % 1011,7 hPa 0,0 l/m 2,2 km/h N 6,4 C 14,7 C 15,3 km/h
15.04.2017 21:00 14,2 C 61 % 1012,1 hPa 0,0 l/m 2,8 km/h N 6,9 C 14,2 C 13,7 km/h
15.04.2017 22:00 13,1 C 69 % 1012,1 hPa 0,0 l/m 4,7 km/h N 7,5 C 13,1 C 19,3 km/h
15.04.2017 23:00 12,6 C 71 % 1012,3 hPa 0,0 l/m 5,4 km/h N 7,6 C 12,6 C 22,5 km/h
16.04.2017 00:00 12,3 C 75 % 1012,1 hPa 0,0 l/m 4,8 km/h N 7,9 C 12,3 C 21,3 km/h
16.04.2017 01:00 12,0 C 77 % 1012,3 hPa 0,3 l/m 4,8 km/h N 8,0 C 12,0 C 18,5 km/h
16.04.2017 02:00 11,3 C 79 % 1012,4 hPa 0,3 l/m 2,8 km/h N 7,8 C 11,3 C 18,5 km/h
16.04.2017 03:00 11,3 C 77 % 1012,7 hPa 0,3 l/m 5,2 km/h N 7,3 C 11,3 C 20,1 km/h
16.04.2017 04:00 9,9 C 80 % 1013,0 hPa 3,9 l/m 3,1 km/h N 6,6 C 9,9 C 14,1 km/h
16.04.2017 05:00 8,1 C 81 % 1013,7 hPa 0,8 l/m 2,6 km/h N 5,0 C 8,1 C 8,8 km/h
16.04.2017 06:00 7,5 C 82 % 1014,3 hPa 0,0 l/m 0,1 km/h N 4,5 C 7,5 C 2,8 km/h
16.04.2017 07:00 7,5 C 82 % 1014,7 hPa 0,0 l/m 0,2 km/h N 4,6 C 7,5 C 3,2 km/h
16.04.2017 08:00 7,9 C 82 % 1014,8 hPa 0,0 l/m 2,7 km/h N 5,1 C 7,9 C 12,4 km/h
16.04.2017 09:00 8,6 C 79 % 1014,9 hPa 0,0 l/m 4,5 km/h N 5,3 C 8,6 C 15,7 km/h
16.04.2017 10:00 7,8 C 79 % 1015,3 hPa 7,3 l/m 3,3 km/h N 4,5 C 7,8 C 12,9 km/h
16.04.2017 11:00 7,2 C 82 % 1015,3 hPa 0,8 l/m 2,6 km/h N 4,3 C 7,2 C 14,9 km/h
16.04.2017 12:00 9,5 C 77 % 1014,9 hPa 0,0 l/m 3,4 km/h N 5,7 C 9,5 C 18,1 km/h
16.04.2017 13:00 11,8 C 59 % 1014,5 hPa 0,0 l/m 7,2 km/h N 4,0 C 11,2 C 20,1 km/h
16.04.2017 14:00 11,8 C 52 % 1014,5 hPa 0,0 l/m 7,0 km/h N 2,1 C 11,0 C 22,1 km/h
16.04.2017 15:00 10,9 C 56 % 1014,7 hPa 0,0 l/m 6,7 km/h N 2,4 C 10,4 C 21,3 km/h
16.04.2017 16:00 9,4 C 66 % 1015,1 hPa 0,5 l/m 4,2 km/h N 3,3 C 9,0 C 17,7 km/h
16.04.2017 17:00 8,8 C 72 % 1015,1 hPa 0,0 l/m 3,0 km/h N 4,0 C 8,8 C 19,3 km/h
16.04.2017 18:00 8,6 C 73 % 1014,9 hPa 0,0 l/m 2,1 km/h N 4,1 C 8,6 C 13,7 km/h
16.04.2017 19:00 8,1 C 72 % 1015,0 hPa 0,0 l/m 3,8 km/h N 3,4 C 8,1 C 18,5 km/h
16.04.2017 20:00 7,8 C 74 % 1015,7 hPa 0,0 l/m 6,3 km/h N 3,4 C 7,4 C 24,1 km/h
16.04.2017 21:00 7,4 C 75 % 1016,5 hPa 0,0 l/m 7,8 km/h N 3,1 C 6,2 C 23,3 km/h
16.04.2017 22:00 7,5 C 74 % 1016,8 hPa 0,0 l/m 7,5 km/h N 3,2 C 6,6 C 25,3 km/h
16.04.2017 23:00 7,3 C 74 % 1017,0 hPa 0,0 l/m 7,4 km/h N 3,1 C 6,4 C 22,9 km/h
Min-Datum _ 12.04.17 12.04.17 13.04.17 - 10.04.17 - 12.04.17 12.04.17 10.04.17
_ Min-Zeit 06:15 12:30 06:15 - 00:00 - 06:15 06:15 00:00
Minimum _ 3,0 C 45 % 1008,8 hPa - 0,0 km/h - -0,3 C 3,0 C 0,0 km/h
Max-Datum _ 10.04.17 10.04.17 12.04.17 16.04.17 11.04.17 - 10.04.17 10.04.17 11.04.17
_ Max-Zeit 15:00 03:45 00:15 10:30 10:30 - 13:00 14:45 12:15
Maximum _ 21,9 C 83 % 1023,9 hPa 7,3 l/m 16,6 km/h
N
- 11,2 C 21,8 C 40,2 km/h
N
Durchschnitt _ 11,2 C 68 % 1015,6 hPa #17,7 l/m 2,7 km/h N 5,2 C 10,9 C 10,2 km/h